sensor_id;sensor_type;location;lat;lon;timestamp;pressure;altitude;pressure_sealevel;temperature;humidity
60817;BME280;51921;51.518;-3.188;2023-02-18T00:01:21;101976.91;;;5.12;100.00
60817;BME280;51921;51.518;-3.188;2023-02-18T00:03:46;101978.03;;;5.43;100.00
60817;BME280;51921;51.518;-3.188;2023-02-18T00:06:14;101980.60;;;5.40;100.00
60817;BME280;51921;51.518;-3.188;2023-02-18T00:08:37;101964.47;;;5.54;100.00
60817;BME280;51921;51.518;-3.188;2023-02-18T00:11:04;101971.85;;;5.49;100.00
60817;BME280;51921;51.518;-3.188;2023-02-18T00:13:28;101982.64;;;5.42;100.00
60817;BME280;51921;51.518;-3.188;2023-02-18T00:15:53;101973.59;;;5.76;100.00
60817;BME280;51921;51.518;-3.188;2023-02-18T00:18:18;101975.71;;;6.02;100.00
60817;BME280;51921;51.518;-3.188;2023-02-18T00:20:44;101968.93;;;5.90;100.00
60817;BME280;51921;51.518;-3.188;2023-02-18T00:23:10;101968.81;;;5.76;100.00
60817;BME280;51921;51.518;-3.188;2023-02-18T00:25:35;101970.35;;;6.24;100.00
60817;BME280;51921;51.518;-3.188;2023-02-18T00:28:00;101977.59;;;5.98;100.00
60817;BME280;51921;51.518;-3.188;2023-02-18T00:30:26;101972.88;;;6.16;100.00
60817;BME280;51921;51.518;-3.188;2023-02-18T00:32:51;101974.19;;;6.29;100.00
60817;BME280;51921;51.518;-3.188;2023-02-18T00:35:17;101964.47;;;5.94;100.00
60817;BME280;51921;51.518;-3.188;2023-02-18T00:37:50;101965.31;;;5.53;100.00
60817;BME280;51921;51.518;-3.188;2023-02-18T00:40:08;101952.78;;;5.74;100.00
60817;BME280;51921;51.518;-3.188;2023-02-18T00:42:33;101940.76;;;5.53;100.00
60817;BME280;51921;51.518;-3.188;2023-02-18T00:44:59;101951.25;;;5.36;100.00
60817;BME280;51921;51.518;-3.188;2023-02-18T00:47:24;101946.17;;;5.98;100.00
60817;BME280;51921;51.518;-3.188;2023-02-18T00:49:50;101939.47;;;6.29;100.00
60817;BME280;51921;51.518;-3.188;2023-02-18T00:52:15;101932.54;;;5.70;100.00
60817;BME280;51921;51.518;-3.188;2023-02-18T00:54:41;101935.44;;;5.65;100.00
60817;BME280;51921;51.518;-3.188;2023-02-18T00:57:06;101935.69;;;5.63;100.00
60817;BME280;51921;51.518;-3.188;2023-02-18T00:59:31;101937.11;;;5.65;100.00
60817;BME280;51921;51.518;-3.188;2023-02-18T01:01:57;101917.40;;;5.94;100.00
60817;BME280;51921;51.518;-3.188;2023-02-18T01:04:22;101933.96;;;5.67;100.00
60817;BME280;51921;51.518;-3.188;2023-02-18T01:06:47;101955.58;;;5.77;100.00
60817;BME280;51921;51.518;-3.188;2023-02-18T01:09:13;101959.98;;;5.43;100.00
60817;BME280;51921;51.518;-3.188;2023-02-18T01:11:38;101952.14;;;5.47;100.00
60817;BME280;51921;51.518;-3.188;2023-02-18T01:14:04;101940.60;;;5.94;100.00
60817;BME280;51921;51.518;-3.188;2023-02-18T01:16:30;101949.82;;;5.84;100.00
60817;BME280;51921;51.518;-3.188;2023-02-18T01:18:55;101937.54;;;5.34;100.00
60817;BME280;51921;51.518;-3.188;2023-02-18T01:21:21;101949.12;;;5.81;100.00
60817;BME280;51921;51.518;-3.188;2023-02-18T01:23:46;101947.44;;;5.51;100.00
60817;BME280;51921;51.518;-3.188;2023-02-18T01:26:11;101935.10;;;5.54;100.00
60817;BME280;51921;51.518;-3.188;2023-02-18T01:28:37;101933.35;;;5.64;100.00
60817;BME280;51921;51.518;-3.188;2023-02-18T01:31:04;101936.46;;;5.84;100.00
60817;BME280;51921;51.518;-3.188;2023-02-18T01:33:28;101938.36;;;5.37;100.00
60817;BME280;51921;51.518;-3.188;2023-02-18T01:38:19;101932.87;;;5.64;100.00
60817;BME280;51921;51.518;-3.188;2023-02-18T01:40:46;101939.80;;;5.39;100.00
60817;BME280;51921;51.518;-3.188;2023-02-18T01:43:11;101946.22;;;5.64;100.00
60817;BME280;51921;51.518;-3.188;2023-02-18T01:45:51;101937.79;;;5.73;100.00
60817;BME280;51921;51.518;-3.188;2023-02-18T01:48:02;101945.92;;;6.08;100.00
60817;BME280;51921;51.518;-3.188;2023-02-18T01:50:32;101948.53;;;5.90;100.00
60817;BME280;51921;51.518;-3.188;2023-02-18T01:52:51;101950.80;;;5.87;100.00
60817;BME280;51921;51.518;-3.188;2023-02-18T01:55:17;101956.70;;;5.91;100.00
60817;BME280;51921;51.518;-3.188;2023-02-18T01:57:42;101961.90;;;5.57;100.00
60817;BME280;51921;51.518;-3.188;2023-02-18T02:00:13;101966.22;;;5.63;100.00
60817;BME280;51921;51.518;-3.188;2023-02-18T02:02:38;101972.40;;;5.44;100.00
60817;BME280;51921;51.518;-3.188;2023-02-18T02:04:59;101964.71;;;5.45;100.00
60817;BME280;51921;51.518;-3.188;2023-02-18T02:07:25;101968.85;;;5.55;100.00
60817;BME280;51921;51.518;-3.188;2023-02-18T02:09:51;101967.29;;;6.05;100.00
60817;BME280;51921;51.518;-3.188;2023-02-18T02:12:26;101967.10;;;5.91;100.00
60817;BME280;51921;51.518;-3.188;2023-02-18T02:20:00;101983.04;;;5.54;100.00
60817;BME280;51921;51.518;-3.188;2023-02-18T02:26:58;101994.92;;;5.75;100.00
60817;BME280;51921;51.518;-3.188;2023-02-18T02:32:01;102000.65;;;6.11;100.00
60817;BME280;51921;51.518;-3.188;2023-02-18T02:34:18;101990.30;;;6.21;100.00
60817;BME280;51921;51.518;-3.188;2023-02-18T02:36:35;101987.88;;;6.31;100.00
60817;BME280;51921;51.518;-3.188;2023-02-18T02:39:01;101980.40;;;6.25;100.00
60817;BME280;51921;51.518;-3.188;2023-02-18T02:41:30;101980.03;;;6.50;100.00
60817;BME280;51921;51.518;-3.188;2023-02-18T02:43:52;101983.76;;;6.57;100.00
60817;BME280;51921;51.518;-3.188;2023-02-18T02:46:16;101976.64;;;6.54;100.00
60817;BME280;51921;51.518;-3.188;2023-02-18T02:48:41;101966.66;;;5.83;100.00
60817;BME280;51921;51.518;-3.188;2023-02-18T02:51:07;101965.86;;;6.12;100.00
60817;BME280;51921;51.518;-3.188;2023-02-18T02:53:30;101966.09;;;6.02;100.00
60817;BME280;51921;51.518;-3.188;2023-02-18T02:55:54;101973.87;;;5.64;100.00
60817;BME280;51921;51.518;-3.188;2023-02-18T02:58:19;101972.89;;;6.03;100.00
60817;BME280;51921;51.518;-3.188;2023-02-18T03:00:55;101972.09;;;5.80;100.00
60817;BME280;51921;51.518;-3.188;2023-02-18T03:05:45;101955.95;;;5.32;100.00
60817;BME280;51921;51.518;-3.188;2023-02-18T03:08:11;101954.01;;;5.48;100.00
60817;BME280;51921;51.518;-3.188;2023-02-18T03:10:39;101948.12;;;5.91;100.00
60817;BME280;51921;51.518;-3.188;2023-02-18T03:12:57;101933.43;;;5.95;100.00
60817;BME280;51921;51.518;-3.188;2023-02-18T03:15:22;101937.95;;;5.68;100.00
60817;BME280;51921;51.518;-3.188;2023-02-18T03:17:47;101941.95;;;6.01;100.00
60817;BME280;51921;51.518;-3.188;2023-02-18T03:20:15;101928.48;;;5.94;100.00
60817;BME280;51921;51.518;-3.188;2023-02-18T03:22:38;101930.32;;;6.02;100.00
60817;BME280;51921;51.518;-3.188;2023-02-18T03:24:59;101922.94;;;6.34;100.00
60817;BME280;51921;51.518;-3.188;2023-02-18T03:27:28;101931.33;;;6.02;100.00
60817;BME280;51921;51.518;-3.188;2023-02-18T03:29:53;101928.87;;;5.74;100.00
60817;BME280;51921;51.518;-3.188;2023-02-18T03:32:18;101926.35;;;6.09;100.00
60817;BME280;51921;51.518;-3.188;2023-02-18T03:34:43;101925.76;;;5.79;100.00
60817;BME280;51921;51.518;-3.188;2023-02-18T03:37:08;101930.08;;;5.92;100.00
60817;BME280;51921;51.518;-3.188;2023-02-18T03:39:34;101912.79;;;5.97;100.00
60817;BME280;51921;51.518;-3.188;2023-02-18T03:41:57;101915.53;;;5.84;100.00
60817;BME280;51921;51.518;-3.188;2023-02-18T03:44:24;101911.57;;;6.00;100.00
60817;BME280;51921;51.518;-3.188;2023-02-18T03:46:48;101908.15;;;5.95;100.00
60817;BME280;51921;51.518;-3.188;2023-02-18T03:49:14;101903.29;;;5.90;100.00
60817;BME280;51921;51.518;-3.188;2023-02-18T03:51:38;101894.09;;;5.88;100.00
60817;BME280;51921;51.518;-3.188;2023-02-18T03:54:04;101899.53;;;5.41;100.00
60817;BME280;51921;51.518;-3.188;2023-02-18T03:56:29;101886.87;;;6.16;100.00
60817;BME280;51921;51.518;-3.188;2023-02-18T03:58:55;101896.07;;;5.93;100.00
60817;BME280;51921;51.518;-3.188;2023-02-18T04:01:20;101893.42;;;5.73;100.00
60817;BME280;51921;51.518;-3.188;2023-02-18T04:03:45;101882.66;;;5.63;100.00
60817;BME280;51921;51.518;-3.188;2023-02-18T04:08:36;101890.90;;;5.50;100.00
60817;BME280;51921;51.518;-3.188;2023-02-18T04:11:02;101890.15;;;5.69;100.00
60817;BME280;51921;51.518;-3.188;2023-02-18T04:13:28;101884.94;;;5.45;100.00
60817;BME280;51921;51.518;-3.188;2023-02-18T04:15:53;101885.02;;;5.44;100.00
60817;BME280;51921;51.518;-3.188;2023-02-18T04:18:19;101873.25;;;5.48;100.00
60817;BME280;51921;51.518;-3.188;2023-02-18T04:20:44;101876.43;;;5.51;100.00
60817;BME280;51921;51.518;-3.188;2023-02-18T04:23:09;101883.84;;;5.47;100.00
60817;BME280;51921;51.518;-3.188;2023-02-18T04:25:35;101870.29;;;5.32;100.00
60817;BME280;51921;51.518;-3.188;2023-02-18T04:28:00;101873.54;;;5.30;100.00
60817;BME280;51921;51.518;-3.188;2023-02-18T04:30:26;101862.57;;;5.07;100.00
60817;BME280;51921;51.518;-3.188;2023-02-18T04:32:51;101873.21;;;5.34;100.00
60817;BME280;51921;51.518;-3.188;2023-02-18T04:35:16;101874.43;;;5.47;100.00
60817;BME280;51921;51.518;-3.188;2023-02-18T04:37:42;101879.91;;;5.37;100.00
60817;BME280;51921;51.518;-3.188;2023-02-18T04:40:08;101876.53;;;4.93;100.00
60817;BME280;51921;51.518;-3.188;2023-02-18T04:42:33;101875.09;;;4.98;100.00
60817;BME280;51921;51.518;-3.188;2023-02-18T04:47:24;101863.10;;;5.22;100.00
60817;BME280;51921;51.518;-3.188;2023-02-18T04:49:49;101861.77;;;5.37;100.00
60817;BME280;51921;51.518;-3.188;2023-02-18T04:52:15;101874.58;;;5.01;100.00
60817;BME280;51921;51.518;-3.188;2023-02-18T04:54:41;101869.33;;;5.30;100.00
60817;BME280;51921;51.518;-3.188;2023-02-18T04:57:05;101871.18;;;5.20;100.00
60817;BME280;51921;51.518;-3.188;2023-02-18T04:59:31;101864.66;;;5.27;100.00
60817;BME280;51921;51.518;-3.188;2023-02-18T05:01:56;101867.34;;;5.29;100.00
60817;BME280;51921;51.518;-3.188;2023-02-18T05:04:22;101871.61;;;5.44;100.00
60817;BME280;51921;51.518;-3.188;2023-02-18T05:06:47;101869.90;;;5.16;100.00
60817;BME280;51921;51.518;-3.188;2023-02-18T05:09:13;101872.85;;;5.08;100.00
60817;BME280;51921;51.518;-3.188;2023-02-18T05:11:38;101880.59;;;4.93;100.00
60817;BME280;51921;51.518;-3.188;2023-02-18T05:14:04;101881.49;;;5.21;100.00
60817;BME280;51921;51.518;-3.188;2023-02-18T05:18:54;101877.58;;;5.20;100.00
60817;BME280;51921;51.518;-3.188;2023-02-18T05:21:28;101869.84;;;5.37;100.00
60817;BME280;51921;51.518;-3.188;2023-02-18T05:26:11;101880.29;;;5.04;100.00
60817;BME280;51921;51.518;-3.188;2023-02-18T05:28:37;101869.10;;;5.21;100.00
60817;BME280;51921;51.518;-3.188;2023-02-18T05:31:02;101868.48;;;5.46;100.00
60817;BME280;51921;51.518;-3.188;2023-02-18T05:33:27;101871.40;;;5.45;100.00
60817;BME280;51921;51.518;-3.188;2023-02-18T05:35:53;101872.17;;;5.19;100.00
60817;BME280;51921;51.518;-3.188;2023-02-18T05:38:18;101870.13;;;5.45;100.00
60817;BME280;51921;51.518;-3.188;2023-02-18T05:40:44;101862.85;;;4.99;100.00
60817;BME280;51921;51.518;-3.188;2023-02-18T05:43:10;101863.56;;;5.17;100.00
60817;BME280;51921;51.518;-3.188;2023-02-18T05:45:35;101863.69;;;5.43;100.00
60817;BME280;51921;51.518;-3.188;2023-02-18T05:48:01;101861.58;;;5.00;100.00
60817;BME280;51921;51.518;-3.188;2023-02-18T05:50:26;101850.67;;;5.74;100.00
60817;BME280;51921;51.518;-3.188;2023-02-18T05:52:52;101853.26;;;5.05;100.00
60817;BME280;51921;51.518;-3.188;2023-02-18T05:57:42;101852.76;;;5.39;100.00
60817;BME280;51921;51.518;-3.188;2023-02-18T06:00:09;101854.15;;;4.94;100.00
60817;BME280;51921;51.518;-3.188;2023-02-18T06:02:33;101847.35;;;5.19;100.00
60817;BME280;51921;51.518;-3.188;2023-02-18T06:05:05;101855.95;;;5.05;100.00
60817;BME280;51921;51.518;-3.188;2023-02-18T06:07:23;101840.29;;;5.39;100.00
60817;BME280;51921;51.518;-3.188;2023-02-18T06:09:49;101847.09;;;5.47;100.00
60817;BME280;51921;51.518;-3.188;2023-02-18T06:12:15;101844.51;;;5.24;100.00
60817;BME280;51921;51.518;-3.188;2023-02-18T06:14:40;101848.02;;;5.31;100.00
60817;BME280;51921;51.518;-3.188;2023-02-18T06:19:31;101841.92;;;5.41;100.00
60817;BME280;51921;51.518;-3.188;2023-02-18T06:21:56;101833.07;;;5.66;100.00
60817;BME280;51921;51.518;-3.188;2023-02-18T06:24:22;101842.97;;;5.29;100.00
60817;BME280;51921;51.518;-3.188;2023-02-18T06:26:47;101836.97;;;5.21;100.00
60817;BME280;51921;51.518;-3.188;2023-02-18T06:29:13;101832.37;;;5.22;100.00
60817;BME280;51921;51.518;-3.188;2023-02-18T06:34:04;101824.35;;;5.57;100.00
60817;BME280;51921;51.518;-3.188;2023-02-18T06:36:29;101826.66;;;5.48;100.00
60817;BME280;51921;51.518;-3.188;2023-02-18T06:38:55;101816.85;;;5.49;100.00
60817;BME280;51921;51.518;-3.188;2023-02-18T06:41:20;101819.31;;;5.26;100.00
60817;BME280;51921;51.518;-3.188;2023-02-18T06:43:45;101815.69;;;5.29;100.00
60817;BME280;51921;51.518;-3.188;2023-02-18T06:46:11;101829.87;;;5.39;100.00
60817;BME280;51921;51.518;-3.188;2023-02-18T06:48:37;101828.95;;;5.70;100.00
60817;BME280;51921;51.518;-3.188;2023-02-18T06:51:02;101830.80;;;5.25;100.00
60817;BME280;51921;51.518;-3.188;2023-02-18T06:53:27;101836.82;;;5.72;100.00
60817;BME280;51921;51.518;-3.188;2023-02-18T06:55:53;101832.32;;;5.90;100.00
60817;BME280;51921;51.518;-3.188;2023-02-18T06:58:18;101838.90;;;5.69;100.00
60817;BME280;51921;51.518;-3.188;2023-02-18T07:00:44;101844.98;;;5.58;100.00
60817;BME280;51921;51.518;-3.188;2023-02-18T07:03:11;101848.08;;;5.68;100.00
60817;BME280;51921;51.518;-3.188;2023-02-18T07:05:35;101852.54;;;6.13;100.00
60817;BME280;51921;51.518;-3.188;2023-02-18T07:08:00;101854.89;;;5.85;100.00
60817;BME280;51921;51.518;-3.188;2023-02-18T07:10:26;101846.18;;;5.99;100.00
60817;BME280;51921;51.518;-3.188;2023-02-18T07:12:52;101848.81;;;6.04;100.00
60817;BME280;51921;51.518;-3.188;2023-02-18T07:15:17;101855.72;;;5.39;100.00
60817;BME280;51921;51.518;-3.188;2023-02-18T07:17:42;101861.04;;;5.73;100.00
60817;BME280;51921;51.518;-3.188;2023-02-18T07:20:09;101854.06;;;5.84;100.00
60817;BME280;51921;51.518;-3.188;2023-02-18T07:22:33;101845.36;;;5.87;100.00
60817;BME280;51921;51.518;-3.188;2023-02-18T07:24:59;101855.86;;;6.00;100.00
60817;BME280;51921;51.518;-3.188;2023-02-18T07:27:24;101845.94;;;5.76;100.00
60817;BME280;51921;51.518;-3.188;2023-02-18T07:29:50;101849.46;;;5.97;100.00
60817;BME280;51921;51.518;-3.188;2023-02-18T07:32:16;101848.52;;;5.60;100.00
60817;BME280;51921;51.518;-3.188;2023-02-18T07:34:41;101849.87;;;5.82;100.00
60817;BME280;51921;51.518;-3.188;2023-02-18T07:37:07;101856.87;;;5.53;100.00
60817;BME280;51921;51.518;-3.188;2023-02-18T07:39:32;101859.46;;;5.85;100.00
60817;BME280;51921;51.518;-3.188;2023-02-18T07:44:23;101871.27;;;5.77;100.00
60817;BME280;51921;51.518;-3.188;2023-02-18T07:46:48;101870.60;;;5.43;100.00
60817;BME280;51921;51.518;-3.188;2023-02-18T07:49:13;101877.03;;;5.27;100.00
60817;BME280;51921;51.518;-3.188;2023-02-18T07:51:40;101884.13;;;5.53;100.00
60817;BME280;51921;51.518;-3.188;2023-02-18T07:54:04;101890.16;;;5.73;100.00
60817;BME280;51921;51.518;-3.188;2023-02-18T07:56:30;101883.77;;;5.84;100.00
60817;BME280;51921;51.518;-3.188;2023-02-18T07:58:55;101893.65;;;5.62;100.00
60817;BME280;51921;51.518;-3.188;2023-02-18T08:01:26;101893.33;;;5.46;100.00
60817;BME280;51921;51.518;-3.188;2023-02-18T08:03:46;101895.03;;;5.98;100.00
60817;BME280;51921;51.518;-3.188;2023-02-18T08:06:20;101888.58;;;5.58;100.00
60817;BME280;51921;51.518;-3.188;2023-02-18T08:08:42;101892.96;;;5.46;100.00
60817;BME280;51921;51.518;-3.188;2023-02-18T08:11:03;101892.50;;;5.79;100.00
60817;BME280;51921;51.518;-3.188;2023-02-18T08:13:40;101895.46;;;5.98;100.00
60817;BME280;51921;51.518;-3.188;2023-02-18T08:15:54;101889.95;;;6.09;100.00
60817;BME280;51921;51.518;-3.188;2023-02-18T08:18:23;101896.15;;;5.36;100.00
60817;BME280;51921;51.518;-3.188;2023-02-18T08:20:45;101899.36;;;5.19;100.00
60817;BME280;51921;51.518;-3.188;2023-02-18T08:23:10;101904.80;;;5.76;100.00
60817;BME280;51921;51.518;-3.188;2023-02-18T08:25:35;101901.48;;;5.99;100.00
60817;BME280;51921;51.518;-3.188;2023-02-18T08:28:01;101901.93;;;5.83;100.00
60817;BME280;51921;51.518;-3.188;2023-02-18T08:30:26;101904.30;;;5.88;100.00
60817;BME280;51921;51.518;-3.188;2023-02-18T08:32:53;101896.29;;;6.07;100.00
60817;BME280;51921;51.518;-3.188;2023-02-18T08:35:17;101894.48;;;6.03;100.00
60817;BME280;51921;51.518;-3.188;2023-02-18T08:37:43;101888.47;;;5.24;100.00
60817;BME280;51921;51.518;-3.188;2023-02-18T08:40:09;101893.76;;;5.53;100.00
60817;BME280;51921;51.518;-3.188;2023-02-18T08:42:33;101902.47;;;5.87;100.00
60817;BME280;51921;51.518;-3.188;2023-02-18T08:44:59;101899.19;;;5.66;100.00
60817;BME280;51921;51.518;-3.188;2023-02-18T08:47:25;101902.18;;;5.74;100.00
60817;BME280;51921;51.518;-3.188;2023-02-18T08:49:52;101902.87;;;5.77;100.00
60817;BME280;51921;51.518;-3.188;2023-02-18T08:52:16;101918.72;;;5.98;100.00
60817;BME280;51921;51.518;-3.188;2023-02-18T08:54:41;101909.69;;;5.87;100.00
60817;BME280;51921;51.518;-3.188;2023-02-18T08:59:32;101906.47;;;5.86;100.00
60817;BME280;51921;51.518;-3.188;2023-02-18T09:01:57;101904.61;;;6.20;100.00
60817;BME280;51921;51.518;-3.188;2023-02-18T09:04:23;101902.64;;;5.87;100.00
60817;BME280;51921;51.518;-3.188;2023-02-18T09:09:14;101908.71;;;5.77;100.00
60817;BME280;51921;51.518;-3.188;2023-02-18T09:11:40;101901.91;;;5.49;100.00
60817;BME280;51921;51.518;-3.188;2023-02-18T09:16:30;101911.77;;;5.81;100.00
60817;BME280;51921;51.518;-3.188;2023-02-18T09:18:56;101906.29;;;5.89;100.00
60817;BME280;51921;51.518;-3.188;2023-02-18T09:21:22;101912.07;;;5.85;100.00
60817;BME280;51921;51.518;-3.188;2023-02-18T09:23:47;101913.33;;;5.95;100.00
60817;BME280;51921;51.518;-3.188;2023-02-18T09:26:19;101904.97;;;6.14;100.00
60817;BME280;51921;51.518;-3.188;2023-02-18T09:28:38;101905.93;;;6.17;100.00
60817;BME280;51921;51.518;-3.188;2023-02-18T09:31:05;101899.36;;;6.09;100.00
60817;BME280;51921;51.518;-3.188;2023-02-18T09:33:29;101903.67;;;6.04;100.00
60817;BME280;51921;51.518;-3.188;2023-02-18T09:35:55;101893.07;;;5.89;100.00
60817;BME280;51921;51.518;-3.188;2023-02-18T09:38:20;101900.90;;;5.97;100.00
60817;BME280;51921;51.518;-3.188;2023-02-18T09:40:47;101900.15;;;6.02;100.00
60817;BME280;51921;51.518;-3.188;2023-02-18T09:43:21;101877.41;;;5.90;100.00
60817;BME280;51921;51.518;-3.188;2023-02-18T09:45:37;101907.81;;;5.54;100.00
60817;BME280;51921;51.518;-3.188;2023-02-18T09:48:03;101900.74;;;5.67;100.00
60817;BME280;51921;51.518;-3.188;2023-02-18T09:50:30;101906.99;;;6.25;100.00
60817;BME280;51921;51.518;-3.188;2023-02-18T09:52:53;101906.80;;;6.09;100.00
60817;BME280;51921;51.518;-3.188;2023-02-18T09:55:22;101895.35;;;6.19;100.00
60817;BME280;51921;51.518;-3.188;2023-02-18T10:02:35;101900.37;;;6.33;100.00
60817;BME280;51921;51.518;-3.188;2023-02-18T10:05:01;101910.55;;;6.40;100.00
60817;BME280;51921;51.518;-3.188;2023-02-18T10:07:29;101904.51;;;6.26;100.00
60817;BME280;51921;51.518;-3.188;2023-02-18T10:09:52;101906.56;;;6.51;100.00
60817;BME280;51921;51.518;-3.188;2023-02-18T10:12:20;101902.87;;;6.31;100.00
60817;BME280;51921;51.518;-3.188;2023-02-18T10:14:43;101905.06;;;6.03;100.00
60817;BME280;51921;51.518;-3.188;2023-02-18T10:17:11;101910.88;;;6.54;100.00
60817;BME280;51921;51.518;-3.188;2023-02-18T10:19:36;101903.64;;;6.42;100.00
60817;BME280;51921;51.518;-3.188;2023-02-18T10:22:02;101907.91;;;7.02;100.00
60817;BME280;51921;51.518;-3.188;2023-02-18T10:24:28;101916.17;;;6.24;100.00
60817;BME280;51921;51.518;-3.188;2023-02-18T10:26:49;101915.26;;;6.26;100.00
60817;BME280;51921;51.518;-3.188;2023-02-18T10:29:16;101915.30;;;6.24;100.00
60817;BME280;51921;51.518;-3.188;2023-02-18T10:31:43;101918.22;;;6.41;100.00
60817;BME280;51921;51.518;-3.188;2023-02-18T10:34:12;101913.23;;;6.72;100.00
60817;BME280;51921;51.518;-3.188;2023-02-18T10:36:36;101915.45;;;6.26;100.00
60817;BME280;51921;51.518;-3.188;2023-02-18T10:41:26;101915.36;;;6.44;100.00
60817;BME280;51921;51.518;-3.188;2023-02-18T10:43:53;101916.35;;;6.48;100.00
60817;BME280;51921;51.518;-3.188;2023-02-18T10:46:18;101923.29;;;6.42;100.00
60817;BME280;51921;51.518;-3.188;2023-02-18T10:48:49;101916.01;;;6.13;100.00
60817;BME280;51921;51.518;-3.188;2023-02-18T10:51:12;101922.95;;;6.29;100.00
60817;BME280;51921;51.518;-3.188;2023-02-18T10:53:32;101932.49;;;6.59;100.00
60817;BME280;51921;51.518;-3.188;2023-02-18T10:55:55;101928.76;;;6.16;100.00
60817;BME280;51921;51.518;-3.188;2023-02-18T11:00:46;101937.34;;;6.50;100.00
60817;BME280;51921;51.518;-3.188;2023-02-18T11:03:15;101933.90;;;6.14;100.00
60817;BME280;51921;51.518;-3.188;2023-02-18T11:05:37;101928.52;;;6.23;100.00
60817;BME280;51921;51.518;-3.188;2023-02-18T11:08:06;101935.17;;;6.29;100.00
60817;BME280;51921;51.518;-3.188;2023-02-18T11:10:30;101913.37;;;6.23;100.00
60817;BME280;51921;51.518;-3.188;2023-02-18T11:12:59;101930.73;;;6.13;100.00
60817;BME280;51921;51.518;-3.188;2023-02-18T11:15:21;101936.43;;;6.11;100.00
60817;BME280;51921;51.518;-3.188;2023-02-18T11:17:45;101935.46;;;6.31;100.00
60817;BME280;51921;51.518;-3.188;2023-02-18T11:20:21;101930.70;;;6.42;100.00
60817;BME280;51921;51.518;-3.188;2023-02-18T11:22:36;101941.41;;;5.67;100.00
60817;BME280;51921;51.518;-3.188;2023-02-18T11:25:03;101929.03;;;6.01;100.00
60817;BME280;51921;51.518;-3.188;2023-02-18T11:27:31;101925.69;;;6.34;100.00
60817;BME280;51921;51.518;-3.188;2023-02-18T11:29:53;101917.07;;;6.39;100.00
60817;BME280;51921;51.518;-3.188;2023-02-18T11:32:17;101905.43;;;6.50;100.00
60817;BME280;51921;51.518;-3.188;2023-02-18T11:34:42;101897.51;;;6.47;100.00
60817;BME280;51921;51.518;-3.188;2023-02-18T11:37:10;101905.41;;;6.47;100.00
60817;BME280;51921;51.518;-3.188;2023-02-18T11:39:33;101912.47;;;6.40;100.00
60817;BME280;51921;51.518;-3.188;2023-02-18T11:42:01;101910.64;;;6.32;100.00
60817;BME280;51921;51.518;-3.188;2023-02-18T11:44:28;101911.91;;;5.91;100.00
60817;BME280;51921;51.518;-3.188;2023-02-18T11:47:00;101899.08;;;6.40;100.00
60817;BME280;51921;51.518;-3.188;2023-02-18T11:49:22;101900.77;;;6.62;100.00
60817;BME280;51921;51.518;-3.188;2023-02-18T11:51:40;101910.94;;;6.58;100.00
60817;BME280;51921;51.518;-3.188;2023-02-18T11:56:34;101911.01;;;6.69;100.00
60817;BME280;51921;51.518;-3.188;2023-02-18T11:58:57;101904.00;;;6.15;100.00
60817;BME280;51921;51.518;-3.188;2023-02-18T12:01:29;101902.07;;;6.30;100.00
60817;BME280;51921;51.518;-3.188;2023-02-18T12:03:51;101917.37;;;6.31;100.00
60817;BME280;51921;51.518;-3.188;2023-02-18T12:06:16;101913.04;;;6.54;100.00
60817;BME280;51921;51.518;-3.188;2023-02-18T12:08:46;101912.26;;;6.48;100.00
60817;BME280;51921;51.518;-3.188;2023-02-18T12:11:08;101897.29;;;6.09;100.00
60817;BME280;51921;51.518;-3.188;2023-02-18T12:13:32;101907.05;;;6.31;100.00
60817;BME280;51921;51.518;-3.188;2023-02-18T12:16:02;101908.21;;;6.02;100.00
60817;BME280;51921;51.518;-3.188;2023-02-18T12:18:30;101899.81;;;6.32;100.00
60817;BME280;51921;51.518;-3.188;2023-02-18T12:20:58;101889.32;;;6.54;100.00
60817;BME280;51921;51.518;-3.188;2023-02-18T12:23:19;101890.53;;;6.10;100.00
60817;BME280;51921;51.518;-3.188;2023-02-18T12:28:22;101894.16;;;6.49;100.00
60817;BME280;51921;51.518;-3.188;2023-02-18T12:33:00;101886.12;;;6.62;100.00
60817;BME280;51921;51.518;-3.188;2023-02-18T12:40:19;101873.55;;;6.50;100.00
60817;BME280;51921;51.518;-3.188;2023-02-18T12:42:46;101859.81;;;6.28;100.00
60817;BME280;51921;51.518;-3.188;2023-02-18T12:45:15;101873.09;;;6.34;100.00
60817;BME280;51921;51.518;-3.188;2023-02-18T12:47:32;101864.85;;;6.53;100.00
60817;BME280;51921;51.518;-3.188;2023-02-18T12:50:07;101867.40;;;6.00;100.00
60817;BME280;51921;51.518;-3.188;2023-02-18T12:52:28;101858.37;;;6.66;100.00
60817;BME280;51921;51.518;-3.188;2023-02-18T12:54:55;101854.38;;;6.64;100.00
60817;BME280;51921;51.518;-3.188;2023-02-18T12:57:24;101856.63;;;6.34;100.00
60817;BME280;51921;51.518;-3.188;2023-02-18T12:59:51;101847.87;;;6.21;100.00
60817;BME280;51921;51.518;-3.188;2023-02-18T13:02:06;101843.98;;;6.24;100.00
60817;BME280;51921;51.518;-3.188;2023-02-18T13:04:32;101846.55;;;6.28;100.00
60817;BME280;51921;51.518;-3.188;2023-02-18T13:07:01;101842.80;;;6.28;100.00
60817;BME280;51921;51.518;-3.188;2023-02-18T13:09:24;101841.99;;;6.27;100.00
60817;BME280;51921;51.518;-3.188;2023-02-18T13:14:11;101830.50;;;6.40;100.00
60817;BME280;51921;51.518;-3.188;2023-02-18T13:16:32;101827.03;;;6.51;100.00
60817;BME280;51921;51.518;-3.188;2023-02-18T13:19:01;101831.95;;;6.06;100.00
60817;BME280;51921;51.518;-3.188;2023-02-18T13:21:28;101828.61;;;6.21;100.00
60817;BME280;51921;51.518;-3.188;2023-02-18T13:23:52;101830.99;;;6.66;100.00
60817;BME280;51921;51.518;-3.188;2023-02-18T13:26:15;101831.47;;;6.23;100.00
60817;BME280;51921;51.518;-3.188;2023-02-18T13:28:43;101830.98;;;6.18;100.00
60817;BME280;51921;51.518;-3.188;2023-02-18T13:31:14;101832.14;;;6.65;100.00
60817;BME280;51921;51.518;-3.188;2023-02-18T13:33:36;101829.30;;;6.42;100.00
60817;BME280;51921;51.518;-3.188;2023-02-18T13:35:59;101839.33;;;6.39;100.00
60817;BME280;51921;51.518;-3.188;2023-02-18T13:40:46;101834.88;;;6.41;100.00